Time;durP1;ratioP1;P1;durP2;ratioP2;P2;SDS_P1;SDS_P2;PMS_P1;PMS_P2;Temp;Humidity;BMP_temperature;BMP_pressure;BME280_temperature;BME280_humidity;BME280_pressure;Samples;Min_cycle;Max_cycle;Signal;HPM_P1;HPM_P2
2023/04/13 00:00:29;;;;;;;4.93;4.05;;;5.60;99.90;;;;;;4902118;28;87710;-33
2023/04/13 00:02:55;;;;;;;6.55;4.57;;;5.70;99.90;;;;;;4900945;28;89886;-36
2023/04/13 00:05:22;;;;;;;4.50;3.92;;;5.80;99.90;;;;;;4919118;22;90268;-35
2023/04/13 00:07:48;;;;;;;4.88;3.70;;;5.80;99.90;;;;;;4862659;28;91171;-33
2023/04/13 00:10:20;;;;;;;7.28;5.20;;;5.70;99.90;;;;;;4863545;28;90096;-31
2023/04/13 00:12:48;;;;;;;4.78;4.07;;;5.80;99.90;;;;;;4862177;28;90394;-32
2023/04/13 00:15:18;;;;;;;12.35;5.07;;;5.90;99.90;;;;;;4862062;28;89672;-31
2023/04/13 00:17:44;;;;;;;8.07;4.28;;;5.90;99.90;;;;;;4862308;28;89040;-31
2023/04/13 00:20:13;;;;;;;3.80;3.42;;;5.90;99.90;;;;;;4863671;28;87888;-31
2023/04/13 00:22:43;;;;;;;6.32;5.07;;;5.90;99.90;;;;;;4862716;28;90027;-34
2023/04/13 00:25:13;;;;;;;5.35;4.85;;;5.90;99.90;;;;;;4863025;28;90019;-33
2023/04/13 00:27:39;;;;;;;5.43;4.20;;;5.90;99.90;;;;;;4862998;28;89467;-30
2023/04/13 00:30:12;;;;;;;4.95;4.45;;;6.00;99.90;;;;;;4863167;28;88491;-32
2023/04/13 00:32:41;;;;;;;4.72;4.15;;;6.00;99.90;;;;;;4862910;28;90387;-31
2023/04/13 00:35:08;;;;;;;8.85;5.95;;;6.00;99.90;;;;;;4862828;28;90990;-30
2023/04/13 00:37:33;;;;;;;6.25;4.53;;;6.00;99.90;;;;;;4861825;28;90397;-30
2023/04/13 00:39:59;;;;;;;5.78;4.47;;;6.10;99.90;;;;;;4862520;28;89139;-33
2023/04/13 00:42:25;;;;;;;7.07;3.83;;;6.10;99.90;;;;;;4862441;28;90596;-32
2023/04/13 00:44:52;;;;;;;7.95;4.40;;;6.10;99.90;;;;;;4862156;28;89655;-32
2023/04/13 00:47:26;;;;;;;4.95;3.88;;;6.10;99.90;;;;;;4862638;28;89239;-33
2023/04/13 00:49:54;;;;;;;5.40;3.97;;;6.10;99.90;;;;;;4862775;28;89389;-34
2023/04/13 00:52:20;;;;;;;5.93;5.05;;;6.10;99.90;;;;;;4862647;28;90597;-31
2023/04/13 00:54:50;;;;;;;5.40;4.72;;;6.20;99.90;;;;;;4862517;28;89621;-32
2023/04/13 00:57:17;;;;;;;5.25;4.00;;;6.20;99.90;;;;;;4861295;28;89251;-35
2023/04/13 00:59:43;;;;;;;7.80;5.07;;;6.20;99.90;;;;;;4861725;28;89751;-31
2023/04/13 01:02:09;;;;;;;3.42;3.05;;;6.30;99.90;;;;;;4862410;28;89729;-32
2023/04/13 01:04:34;;;;;;;7.93;3.38;;;6.40;99.90;;;;;;4862369;28;89690;-33
2023/04/13 01:07:22;;;;;;;2.78;2.55;;;6.40;99.90;;;;;;4861633;28;89342;-33
2023/04/13 01:10:04;;;;;;;5.05;2.75;;;6.30;99.90;;;;;;4860936;28;89197;-34
2023/04/13 01:12:29;;;;;;;6.00;3.15;;;6.40;99.90;;;;;;4862139;28;89914;-32
2023/04/13 01:15:04;;;;;;;3.90;2.88;;;6.30;99.90;;;;;;4860643;28;89846;-34
2023/04/13 01:17:32;;;;;;;3.97;3.58;;;6.30;99.90;;;;;;4862858;28;89685;-31
2023/04/13 01:20:12;;;;;;;5.07;3.13;;;6.30;99.90;;;;;;4862353;28;88876;-32
2023/04/13 01:23:00;;;;;;;2.97;2.50;;;6.20;99.90;;;;;;4862058;28;91107;-30
2023/04/13 01:25:44;;;;;;;4.05;2.60;;;6.20;99.90;;;;;;4862916;28;90458;-31
2023/04/13 01:28:20;;;;;;;4.85;2.95;;;6.10;99.90;;;;;;4853167;28;90279;-32
2023/04/13 01:30:48;;;;;;;3.53;2.15;;;6.10;99.90;;;;;;4865926;28;89121;-33
2023/04/13 01:33:15;;;;;;;4.17;3.10;;;6.10;99.90;;;;;;4865741;28;90027;-31
2023/04/13 01:35:41;;;;;;;4.65;2.65;;;6.10;99.90;;;;;;4864943;28;90012;-33
2023/04/13 01:38:07;;;;;;;3.20;2.75;;;6.10;99.90;;;;;;4865725;28;89062;-32
2023/04/13 01:40:35;;;;;;;4.88;2.13;;;6.10;99.90;;;;;;4865608;28;88403;-31
2023/04/13 01:43:01;;;;;;;3.80;3.03;;;6.20;99.90;;;;;;4865495;28;91705;-30
2023/04/13 01:45:35;;;;;;;2.58;2.22;;;6.10;99.90;;;;;;4865025;28;89727;-35
2023/04/13 01:48:23;;;;;;;3.97;2.63;;;6.10;99.90;;;;;;4864912;28;89754;-31
2023/04/13 01:50:56;;;;;;;4.18;2.08;;;6.10;99.90;;;;;;4865160;28;88756;-33
2023/04/13 01:53:27;;;;;;;4.88;2.38;;;6.10;99.90;;;;;;4865218;28;89208;-32
2023/04/13 01:55:54;;;;;;;2.65;2.17;;;6.00;99.90;;;;;;4863646;28;89847;-34
2023/04/13 01:58:26;;;;;;;2.33;2.13;;;6.00;99.90;;;;;;4865686;28;89166;-32
2023/04/13 02:00:55;;;;;;;1.88;1.77;;;6.10;99.90;;;;;;4865187;28;89042;-34
2023/04/13 02:03:21;;;;;;;3.15;2.35;;;6.00;99.90;;;;;;4865181;28;90367;-33
2023/04/13 02:05:47;;;;;;;2.40;2.20;;;6.10;99.90;;;;;;4864600;28;89533;-31
2023/04/13 02:08:14;;;;;;;5.50;3.78;;;6.00;99.90;;;;;;4864466;28;88817;-34
2023/04/13 02:10:41;;;;;;;2.55;2.20;;;6.00;99.90;;;;;;4865204;28;89058;-35
2023/04/13 02:13:08;;;;;;;2.10;1.95;;;6.00;99.90;;;;;;4864529;28;91855;-31
2023/04/13 02:15:36;;;;;;;3.40;2.40;;;6.00;99.90;;;;;;4864038;28;90611;-30
2023/04/13 02:18:03;;;;;;;5.00;2.37;;;6.00;99.90;;;;;;4864191;28;90113;-29
2023/04/13 02:20:32;;;;;;;4.20;2.60;;;6.00;99.90;;;;;;4865610;28;89051;-34
2023/04/13 02:22:58;;;;;;;2.75;2.35;;;6.00;99.90;;;;;;4864352;28;89797;-34
2023/04/13 02:25:24;;;;;;;2.22;1.95;;;6.00;99.90;;;;;;4865122;28;89523;-31
2023/04/13 02:27:50;;;;;;;2.65;2.22;;;6.10;99.90;;;;;;4864291;28;89630;-33
2023/04/13 02:30:16;;;;;;;3.15;2.72;;;6.00;99.90;;;;;;4865735;28;88560;-34
2023/04/13 02:32:44;;;;;;;2.90;2.58;;;6.10;99.90;;;;;;4864414;28;89588;-31
2023/04/13 02:35:10;;;;;;;2.05;1.95;;;6.00;99.90;;;;;;4864753;28;88644;-35
2023/04/13 02:37:39;;;;;;;3.10;2.90;;;6.00;99.90;;;;;;4863541;28;89517;-32
2023/04/13 02:40:08;;;;;;;3.50;2.88;;;6.10;99.90;;;;;;4864632;28;90249;-31
2023/04/13 02:42:35;;;;;;;3.72;2.00;;;6.00;99.90;;;;;;4864165;28;91606;-32
2023/04/13 02:45:00;;;;;;;3.63;2.95;;;6.00;99.90;;;;;;4864504;28;89838;-31
2023/04/13 02:47:26;;;;;;;4.85;3.05;;;6.00;99.90;;;;;;4864630;28;90672;-31
2023/04/13 02:49:51;;;;;;;4.32;2.10;;;6.00;99.90;;;;;;4864750;28;89560;-32
2023/04/13 02:52:17;;;;;;;2.70;1.88;;;6.00;99.90;;;;;;4864683;28;90441;-31
2023/04/13 02:54:43;;;;;;;2.42;2.20;;;6.00;99.90;;;;;;4863989;28;90617;-31
2023/04/13 02:57:12;;;;;;;4.32;1.98;;;6.00;99.90;;;;;;4864223;28;90013;-34
2023/04/13 02:59:39;;;;;;;2.92;2.10;;;6.00;99.90;;;;;;4864643;28;88469;-32
2023/04/13 03:02:05;;;;;;;2.25;1.83;;;6.00;99.90;;;;;;4864816;28;90101;-31
2023/04/13 03:04:31;;;;;;;4.22;1.85;;;6.00;99.90;;;;;;4862376;28;91186;-31
2023/04/13 03:06:57;;;;;;;7.97;2.20;;;6.00;99.90;;;;;;4863617;28;90466;-33
2023/04/13 03:09:24;;;;;;;4.30;1.92;;;6.00;99.90;;;;;;4864482;28;88068;-31
2023/04/13 03:11:50;;;;;;;3.05;1.88;;;6.00;99.90;;;;;;4863264;28;88910;-34
2023/04/13 03:14:21;;;;;;;1.58;1.45;;;6.00;99.90;;;;;;4862765;28;91739;-35
2023/04/13 03:16:47;;;;;;;4.45;2.22;;;6.00;99.90;;;;;;4863408;28;89593;-34
2023/04/13 03:19:15;;;;;;;1.83;1.38;;;6.00;99.90;;;;;;4864244;28;90685;-32
2023/04/13 03:21:43;;;;;;;4.87;1.83;;;6.00;99.90;;;;;;4852648;28;89534;-33
2023/04/13 03:24:10;;;;;;;6.90;1.77;;;6.00;99.90;;;;;;4863044;28;90754;-32
2023/04/13 03:26:36;;;;;;;1.67;1.58;;;6.00;99.90;;;;;;4863929;28;89534;-35
2023/04/13 03:29:02;;;;;;;2.25;1.83;;;6.00;99.90;;;;;;4863436;28;90224;-31
2023/04/13 03:31:29;;;;;;;3.00;1.63;;;6.10;99.90;;;;;;4863347;28;89742;-32
2023/04/13 03:33:56;;;;;;;2.70;2.00;;;6.00;99.90;;;;;;4863149;28;89802;-31
2023/04/13 03:36:22;;;;;;;3.27;1.67;;;6.10;99.90;;;;;;4864159;28;89123;-31
2023/04/13 03:38:48;;;;;;;3.78;2.33;;;6.00;99.90;;;;;;4862876;28;89024;-34
2023/04/13 03:41:14;;;;;;;3.60;2.28;;;6.10;99.90;;;;;;4863391;28;90398;-33
2023/04/13 03:43:40;;;;;;;3.13;1.85;;;6.10;99.90;;;;;;4863760;28;89314;-33
2023/04/13 03:46:06;;;;;;;2.03;1.80;;;6.10;99.90;;;;;;4863930;28;88979;-29
2023/04/13 03:48:33;;;;;;;2.03;1.92;;;6.10;99.90;;;;;;4863081;28;88412;-31
2023/04/13 03:50:58;;;;;;;4.43;1.85;;;6.10;99.90;;;;;;4863288;28;90408;-32
2023/04/13 03:53:25;;;;;;;1.98;1.80;;;6.10;99.90;;;;;;4862235;28;89877;-31
2023/04/13 03:55:51;;;;;;;3.15;1.70;;;6.10;99.90;;;;;;4863699;28;90415;-30
2023/04/13 03:58:17;;;;;;;7.53;2.05;;;6.10;99.90;;;;;;4863103;28;89572;-31
2023/04/13 04:00:43;;;;;;;1.90;1.80;;;6.20;99.90;;;;;;4862884;28;90410;-31
2023/04/13 04:03:09;;;;;;;3.28;2.00;;;6.20;99.90;;;;;;4863670;28;89957;-30
2023/04/13 04:05:38;;;;;;;2.67;1.60;;;6.20;99.90;;;;;;4862495;28;89784;-34
2023/04/13 04:08:04;;;;;;;2.10;1.92;;;6.20;99.90;;;;;;4862472;28;87890;-34
2023/04/13 04:10:29;;;;;;;3.72;1.70;;;6.20;99.90;;;;;;4863963;28;89929;-30
2023/04/13 04:12:56;;;;;;;2.88;2.22;;;6.20;99.90;;;;;;4862553;28;90131;-31
2023/04/13 04:15:22;;;;;;;4.90;2.22;;;6.20;99.90;;;;;;4863450;28;89501;-32
2023/04/13 04:17:47;;;;;;;7.30;2.20;;;6.20;99.90;;;;;;4862559;28;89493;-30
2023/04/13 04:20:13;;;;;;;2.17;1.98;;;6.20;99.90;;;;;;4862729;28;90257;-31
2023/04/13 04:22:40;;;;;;;4.75;2.58;;;6.20;99.90;;;;;;4862893;28;90042;-31
2023/04/13 04:25:07;;;;;;;2.22;2.03;;;6.20;99.90;;;;;;4863068;28;89265;-30
2023/04/13 04:27:36;;;;;;;3.13;2.15;;;6.20;99.90;;;;;;4863285;28;90134;-29
2023/04/13 04:30:04;;;;;;;4.03;1.77;;;6.20;99.90;;;;;;4864639;28;90256;-29
2023/04/13 04:32:32;;;;;;;3.93;2.37;;;6.30;99.90;;;;;;4865668;28;90437;-33
2023/04/13 04:34:58;;;;;;;2.90;2.60;;;6.30;99.90;;;;;;4863242;28;89949;-30
2023/04/13 04:37:24;;;;;;;2.28;2.08;;;6.30;99.90;;;;;;4862751;28;89051;-33
2023/04/13 04:39:52;;;;;;;2.00;1.88;;;6.30;99.90;;;;;;4862466;28;90646;-33
2023/04/13 04:42:17;;;;;;;4.10;2.50;;;6.30;99.90;;;;;;4862398;28;90718;-31
2023/04/13 04:44:46;;;;;;;3.75;2.97;;;6.30;99.90;;;;;;4859946;28;90315;-30
2023/04/13 04:47:18;;;;;;;3.45;2.95;;;6.30;99.90;;;;;;4862142;28;89950;-31
2023/04/13 04:49:44;;;;;;;3.88;2.67;;;6.30;99.90;;;;;;4862195;28;89923;-34
2023/04/13 04:52:11;;;;;;;5.30;2.05;;;6.30;99.90;;;;;;4862621;28;89435;-32
2023/04/13 04:54:38;;;;;;;4.25;2.33;;;6.30;99.90;;;;;;4862587;28;90283;-32
2023/04/13 04:57:04;;;;;;;3.00;2.50;;;6.30;99.90;;;;;;4862047;28;87701;-33
2023/04/13 04:59:29;;;;;;;5.85;2.55;;;6.30;99.90;;;;;;4862182;28;90106;-30
2023/04/13 05:01:55;;;;;;;3.67;2.42;;;6.40;99.90;;;;;;4864809;28;90001;-31
2023/04/13 05:04:21;;;;;;;2.45;1.90;;;6.30;99.90;;;;;;4865913;28;89188;-31
2023/04/13 05:06:47;;;;;;;3.30;2.28;;;6.30;99.90;;;;;;4864902;28;90378;-32
2023/04/13 05:09:13;;;;;;;2.75;2.50;;;6.30;99.90;;;;;;4865189;28;90191;-33
2023/04/13 05:11:40;;;;;;;3.78;1.83;;;6.30;99.90;;;;;;4865176;28;89466;-34
2023/04/13 05:14:06;;;;;;;3.47;3.03;;;6.30;99.90;;;;;;4865764;28;89673;-32
2023/04/13 05:16:32;;;;;;;2.80;1.90;;;6.30;99.90;;;;;;4865809;28;89259;-29
2023/04/13 05:18:58;;;;;;;5.25;3.05;;;6.30;99.90;;;;;;4864475;28;90399;-32
2023/04/13 05:21:25;;;;;;;3.40;2.78;;;6.30;99.90;;;;;;4865154;28;89823;-31
2023/04/13 05:23:52;;;;;;;4.82;3.00;;;6.30;99.90;;;;;;4865037;28;89185;-30
2023/04/13 05:26:19;;;;;;;3.25;2.80;;;6.30;99.90;;;;;;4865464;28;89684;-32
2023/04/13 05:28:45;;;;;;;5.57;2.33;;;6.30;99.90;;;;;;4865932;28;89495;-32
2023/04/13 05:31:10;;;;;;;3.22;2.55;;;6.40;99.90;;;;;;4864663;28;90506;-32
2023/04/13 05:33:36;;;;;;;3.55;2.92;;;6.40;99.90;;;;;;4865737;28;90380;-34
2023/04/13 05:36:03;;;;;;;2.65;2.28;;;6.50;99.90;;;;;;4865630;28;89299;-30
2023/04/13 05:38:29;;;;;;;2.83;2.53;;;6.40;99.90;;;;;;4864683;28;89345;-31
2023/04/13 05:40:56;;;;;;;4.47;2.25;;;6.50;99.90;;;;;;4865062;28;89715;-35
2023/04/13 05:43:23;;;;;;;4.68;2.55;;;6.50;99.90;;;;;;4865229;28;89356;-33
2023/04/13 05:45:48;;;;;;;3.83;2.38;;;6.50;99.90;;;;;;4865165;28;89569;-31
2023/04/13 05:48:14;;;;;;;2.47;1.95;;;6.50;99.90;;;;;;4864293;28;90460;-35
2023/04/13 05:50:40;;;;;;;2.53;2.33;;;6.50;99.90;;;;;;4860756;28;89836;-32
2023/04/13 05:53:06;;;;;;;3.72;2.65;;;6.60;99.90;;;;;;4864951;28;89839;-32
2023/04/13 05:55:32;;;;;;;3.35;3.05;;;6.70;99.90;;;;;;4864584;28;89942;-30
2023/04/13 05:58:03;;;;;;;4.28;2.80;;;6.70;99.90;;;;;;4864231;28;90168;-34
2023/04/13 06:00:29;;;;;;;3.13;2.83;;;6.70;99.90;;;;;;4864980;28;89708;-31
2023/04/13 06:02:58;;;;;;;4.57;3.25;;;6.70;99.90;;;;;;4864259;28;89136;-31
2023/04/13 06:05:23;;;;;;;4.95;3.03;;;6.70;99.90;;;;;;4864727;28;89851;-32
2023/04/13 06:07:49;;;;;;;3.97;3.65;;;6.70;99.90;;;;;;4864903;28;90105;-31
2023/04/13 06:10:15;;;;;;;4.72;3.08;;;6.80;99.90;;;;;;4864945;28;90239;-31
2023/04/13 06:12:47;;;;;;;3.28;2.97;;;6.80;99.90;;;;;;4863602;28;89212;-33
2023/04/13 06:15:13;;;;;;;5.15;3.97;;;6.90;99.90;;;;;;4864229;28;89915;-35
2023/04/13 06:17:39;;;;;;;5.35;3.70;;;7.00;99.90;;;;;;4864855;28;89936;-32
2023/04/13 06:20:09;;;;;;;5.65;4.57;;;7.10;99.90;;;;;;4863659;28;90086;-34
2023/04/13 06:22:35;;;;;;;6.68;3.33;;;7.10;99.90;;;;;;4864699;28;90115;-33
2023/04/13 06:25:00;;;;;;;8.20;4.10;;;7.20;99.90;;;;;;4864104;28;87707;-35
2023/04/13 06:27:27;;;;;;;3.97;3.28;;;7.30;99.90;;;;;;4864573;28;90565;-33
2023/04/13 06:29:52;;;;;;;6.03;4.70;;;7.30;99.90;;;;;;4864165;28;89805;-32
2023/04/13 06:32:18;;;;;;;9.80;4.07;;;7.30;99.90;;;;;;4864910;28;89328;-32
2023/04/13 06:34:44;;;;;;;6.07;3.40;;;7.30;99.90;;;;;;4864632;28;87722;-34
2023/04/13 06:37:10;;;;;;;5.10;3.38;;;7.30;99.90;;;;;;4864726;28;89882;-36
2023/04/13 06:39:36;;;;;;;7.70;5.28;;;7.40;99.90;;;;;;4864727;28;90095;-31
2023/04/13 06:42:05;;;;;;;6.18;3.28;;;7.50;99.90;;;;;;4863470;28;89119;-32
2023/04/13 06:44:31;;;;;;;7.60;3.80;;;7.50;99.90;;;;;;4864166;28;88660;-35
2023/04/13 06:46:56;;;;;;;6.53;4.40;;;7.50;99.90;;;;;;4862868;28;90455;-32
2023/04/13 06:49:22;;;;;;;5.32;4.10;;;7.50;99.90;;;;;;4868587;28;89824;-34
2023/04/13 06:51:47;;;;;;;6.70;5.05;;;7.60;99.90;;;;;;4860962;28;90215;-32
2023/04/13 06:54:13;;;;;;;5.18;4.22;;;7.70;99.90;;;;;;4862183;28;89054;-32
2023/04/13 06:56:39;;;;;;;9.43;5.40;;;7.80;99.90;;;;;;4862035;28;90194;-35
2023/04/13 06:59:05;;;;;;;9.45;4.35;;;7.80;99.90;;;;;;4862519;28;89757;-33
2023/04/13 07:01:31;;;;;;;6.53;4.20;;;7.80;99.90;;;;;;4861989;28;89452;-35
2023/04/13 07:03:57;;;;;;;6.68;4.35;;;7.80;99.90;;;;;;4862363;28;87745;-35
2023/04/13 07:06:23;;;;;;;6.32;4.57;;;7.90;99.90;;;;;;4861466;28;90411;-35
2023/04/13 07:08:49;;;;;;;5.55;4.60;;;8.20;99.90;;;;;;4861404;28;90399;-31
2023/04/13 07:11:14;;;;;;;5.72;4.10;;;8.50;99.90;;;;;;4862175;28;89971;-29
2023/04/13 07:13:40;;;;;;;6.18;4.30;;;8.40;99.90;;;;;;4861477;28;88616;-34
2023/04/13 07:16:10;;;;;;;9.18;5.05;;;8.30;99.90;;;;;;4862040;28;90162;-32
2023/04/13 07:18:37;;;;;;;7.78;4.85;;;8.20;99.90;;;;;;4862262;28;89997;-33
2023/04/13 07:21:03;;;;;;;10.20;5.32;;;8.30;99.90;;;;;;4861803;28;88941;-29
2023/04/13 07:23:28;;;;;;;7.32;4.80;;;8.40;99.90;;;;;;4861141;28;89436;-32
2023/04/13 07:25:54;;;;;;;5.22;3.83;;;8.30;99.90;;;;;;4861515;28;90416;-30
2023/04/13 07:28:20;;;;;;;6.90;4.10;;;8.30;99.90;;;;;;4861626;28;90157;-33
2023/04/13 07:30:46;;;;;;;5.80;4.40;;;8.20;99.90;;;;;;4861525;28;90023;-34
2023/04/13 07:33:11;;;;;;;3.35;3.05;;;8.20;99.90;;;;;;4861343;28;88753;-32
2023/04/13 07:35:38;;;;;;;7.90;4.03;;;8.20;99.90;;;;;;4861598;28;91153;-31
2023/04/13 07:38:04;;;;;;;5.20;3.47;;;8.30;99.90;;;;;;4864366;28;89487;-30
2023/04/13 07:40:30;;;;;;;5.10;3.72;;;8.30;99.90;;;;;;4861371;28;89919;-31
2023/04/13 07:42:56;;;;;;;4.28;2.97;;;8.50;99.90;;;;;;4861452;28;89719;-34
2023/04/13 07:45:22;;;;;;;18.90;3.42;;;8.70;99.90;;;;;;4861471;28;91691;-31
2023/04/13 07:47:48;;;;;;;5.25;3.45;;;8.70;99.90;;;;;;4860967;28;89771;-30
2023/04/13 07:50:15;;;;;;;4.65;3.22;;;8.70;99.90;;;;;;4859798;28;89000;-32
2023/04/13 07:52:41;;;;;;;4.20;3.30;;;9.10;99.90;;;;;;4860997;28;89487;-31
2023/04/13 07:55:07;;;;;;;7.70;3.90;;;9.10;99.90;;;;;;4861418;28;88860;-33
2023/04/13 07:57:33;;;;;;;6.72;3.35;;;9.00;99.90;;;;;;4860767;28;91435;-32
2023/04/13 07:59:59;;;;;;;6.88;3.67;;;9.10;99.90;;;;;;4860747;28;90020;-32
2023/04/13 08:02:25;;;;;;;3.78;3.25;;;9.40;99.90;;;;;;4862849;28;88356;-33
2023/04/13 08:04:54;;;;;;;3.65;3.05;;;9.40;99.90;;;;;;4860249;28;90421;-30
2023/04/13 08:07:20;;;;;;;4.03;3.38;;;9.20;99.90;;;;;;4861199;28;90201;-34
2023/04/13 08:09:47;;;;;;;4.63;2.85;;;9.10;99.90;;;;;;4860384;28;90071;-34
2023/04/13 08:12:13;;;;;;;2.40;2.20;;;8.80;99.90;;;;;;4861192;28;88706;-34
2023/04/13 08:14:39;;;;;;;5.38;2.33;;;8.70;99.90;;;;;;4861365;28;90743;-32
2023/04/13 08:17:04;;;;;;;8.77;2.60;;;8.70;99.90;;;;;;4861319;28;89665;-32
2023/04/13 08:19:31;;;;;;;5.90;2.45;;;8.90;99.90;;;;;;4861208;28;88491;-31
2023/04/13 08:21:57;;;;;;;2.85;2.42;;;9.00;99.90;;;;;;4860449;28;90080;-31
2023/04/13 08:24:24;;;;;;;4.65;2.42;;;9.20;99.90;;;;;;4860770;28;90192;-35
2023/04/13 08:26:51;;;;;;;3.05;1.92;;;9.40;99.90;;;;;;4861120;28;89663;-32
2023/04/13 08:29:16;;;;;;;2.67;2.38;;;9.70;99.90;;;;;;4860683;28;89889;-32
2023/04/13 08:31:42;;;;;;;7.78;2.92;;;9.80;99.90;;;;;;4861050;28;89742;-32
2023/04/13 08:34:10;;;;;;;5.95;2.00;;;9.70;99.90;;;;;;4860604;28;90697;-33
2023/04/13 08:36:37;;;;;;;2.17;1.95;;;9.40;99.90;;;;;;4859888;28;89767;-34
2023/04/13 08:39:04;;;;;;;3.97;2.75;;;9.50;99.90;;;;;;4860866;28;90185;-31
2023/04/13 08:41:32;;;;;;;2.88;2.45;;;9.50;99.90;;;;;;4861455;28;88758;-32
2023/04/13 08:44:01;;;;;;;2.17;1.90;;;9.50;99.90;;;;;;4860488;28;89764;-32
2023/04/13 08:46:27;;;;;;;3.92;2.10;;;9.60;99.90;;;;;;4860210;28;90510;-33
2023/04/13 08:48:53;;;;;;;3.58;2.55;;;9.90;99.90;;;;;;4859810;28;91555;-33
2023/04/13 08:51:21;;;;;;;7.05;2.17;;;9.80;99.90;;;;;;4860937;28;88973;-34
2023/04/13 08:53:47;;;;;;;2.90;2.40;;;9.60;99.90;;;;;;4860480;28;91487;-32
2023/04/13 08:56:13;;;;;;;3.90;2.85;;;9.30;99.90;;;;;;4859921;28;90308;-32
2023/04/13 08:58:41;;;;;;;5.82;3.13;;;9.20;99.90;;;;;;4861980;28;89773;-35
2023/04/13 09:01:12;;;;;;;6.68;2.88;;;9.10;99.90;;;;;;4870895;28;89636;-31
2023/04/13 09:04:06;;;;;;;4.82;2.90;;;9.00;99.90;;;;;;4860625;28;90174;-32
2023/04/13 09:06:36;;;;;;;4.28;3.38;;;8.90;99.90;;;;;;4859717;28;89517;-33
2023/04/13 09:09:08;;;;;;;9.35;3.33;;;8.80;99.90;;;;;;4860266;28;89532;-33
2023/04/13 09:11:34;;;;;;;4.10;2.58;;;9.00;99.90;;;;;;4860416;28;89526;-34
2023/04/13 09:14:00;;;;;;;5.32;2.85;;;8.70;99.90;;;;;;4861404;28;90344;-33
2023/04/13 09:16:26;;;;;;;3.55;2.58;;;8.80;99.90;;;;;;4859066;28;89869;-32
2023/04/13 09:18:54;;;;;;;2.70;2.50;;;8.80;99.90;;;;;;4859302;28;89384;-33
2023/04/13 09:21:21;;;;;;;3.08;2.67;;;8.90;99.90;;;;;;4859802;28;89960;-33
2023/04/13 09:23:57;;;;;;;5.65;3.63;;;8.90;99.90;;;;;;4858950;28;90289;-32
2023/04/13 09:26:23;;;;;;;5.03;3.08;;;8.90;99.90;;;;;;4859379;28;89472;-32
2023/04/13 09:28:51;;;;;;;2.03;1.83;;;8.90;99.90;;;;;;4859598;28;89579;-31
2023/04/13 09:31:18;;;;;;;1.85;1.38;;;8.80;99.90;;;;;;4859938;28;89831;-30
2023/04/13 09:33:46;;;;;;;2.85;1.15;;;8.60;99.90;;;;;;4859021;28;90274;-35
2023/04/13 09:36:13;;;;;;;2.20;1.20;;;8.50;99.90;;;;;;4858635;28;90647;-34
2023/04/13 09:38:39;;;;;;;0.80;0.80;;;8.40;99.90;;;;;;4859093;28;89083;-33
2023/04/13 09:41:06;;;;;;;1.05;0.93;;;8.40;99.90;;;;;;4860091;28;89940;-33
2023/04/13 09:43:36;;;;;;;0.67;0.67;;;8.50;99.90;;;;;;4859740;28;90685;-32
2023/04/13 09:46:03;;;;;;;0.85;0.85;;;8.60;99.90;;;;;;4859614;28;89772;-32
2023/04/13 09:48:29;;;;;;;1.70;0.95;;;8.60;99.90;;;;;;4862184;28;89861;-33
2023/04/13 09:51:04;;;;;;;4.20;1.00;;;8.50;99.90;;;;;;4862956;28;89843;-32
2023/04/13 09:53:47;;;;;;;1.48;0.93;;;8.60;99.90;;;;;;4863187;28;90207;-34
2023/04/13 09:56:12;;;;;;;0.70;0.70;;;8.50;99.90;;;;;;4862266;28;89324;-30
2023/04/13 09:58:46;;;;;;;1.35;1.13;;;8.40;99.90;;;;;;4862704;28;88860;-32
2023/04/13 10:01:15;;;;;;;2.40;0.88;;;8.30;99.90;;;;;;4861810;28;90761;-34
2023/04/13 10:03:41;;;;;;;0.60;0.60;;;8.10;99.90;;;;;;4861639;28;90201;-33
2023/04/13 10:06:08;;;;;;;1.30;0.80;;;8.10;99.90;;;;;;4862267;28;89706;-32
2023/04/13 10:08:37;;;;;;;1.10;0.90;;;8.10;99.90;;;;;;4862504;28;88901;-33
2023/04/13 10:11:07;;;;;;;1.33;1.08;;;8.20;99.90;;;;;;4862392;28;89158;-32
2023/04/13 10:14:08;;;;;;;0.98;0.90;;;8.20;99.90;;;;;;4862217;28;90305;-34
2023/04/13 10:17:09;;;;;;;0.75;0.55;;;8.30;99.90;;;;;;4861130;28;89536;-32
2023/04/13 10:19:49;;;;;;;1.27;0.88;;;8.80;99.90;;;;;;4845670;28;90353;-35
2023/04/13 10:22:16;;;;;;;2.30;1.33;;;9.40;99.90;;;;;;4862066;28;88901;-33
2023/04/13 10:24:42;;;;;;;1.92;0.70;;;9.70;99.90;;;;;;4862191;28;88894;-34
2023/04/13 10:27:22;;;;;;;1.55;0.85;;;9.90;99.90;;;;;;4861764;28;91075;-31
2023/04/13 10:29:48;;;;;;;2.17;1.35;;;10.10;99.90;;;;;;4852029;28;89913;-30
2023/04/13 10:32:25;;;;;;;4.30;1.50;;;10.40;99.90;;;;;;4862109;28;89562;-31
2023/04/13 10:34:52;;;;;;;2.33;1.20;;;10.30;99.90;;;;;;4861445;28;90195;-33
2023/04/13 10:37:20;;;;;;;3.25;1.35;;;10.10;99.90;;;;;;4862478;28;89915;-31
2023/04/13 10:39:46;;;;;;;1.90;1.45;;;10.00;99.90;;;;;;4861693;28;89600;-31
2023/04/13 10:42:12;;;;;;;1.40;1.30;;;9.90;99.90;;;;;;4861686;28;89007;-34
2023/04/13 10:44:49;;;;;;;5.57;2.22;;;10.00;99.90;;;;;;4862504;28;90086;-30
2023/04/13 10:47:17;;;;;;;6.47;1.88;;;9.90;99.90;;;;;;4862138;28;89255;-33
2023/04/13 10:49:45;;;;;;;7.03;2.08;;;9.80;99.90;;;;;;4861528;28;90272;-31
2023/04/13 10:52:11;;;;;;;3.05;1.20;;;9.60;99.90;;;;;;4861215;28;89391;-33
2023/04/13 10:54:38;;;;;;;2.30;1.85;;;9.70;99.90;;;;;;4860743;28;90114;-35
2023/04/13 10:57:07;;;;;;;9.13;3.08;;;9.90;99.90;;;;;;4861612;28;90322;-34
2023/04/13 10:59:48;;;;;;;2.55;1.67;;;10.10;99.90;;;;;;4860709;28;89547;-32
2023/04/13 11:02:16;;;;;;;2.20;2.00;;;10.50;99.90;;;;;;4862412;28;89866;-34
2023/04/13 11:04:47;;;;;;;7.63;2.03;;;10.80;99.90;;;;;;4860433;28;89803;-31
2023/04/13 11:07:15;;;;;;;5.38;2.38;;;10.90;99.90;;;;;;4861644;28;89537;-31
2023/04/13 11:09:46;;;;;;;5.28;2.50;;;10.90;99.90;;;;;;4861210;28;89453;-32
2023/04/13 11:12:13;;;;;;;6.47;2.63;;;10.70;99.90;;;;;;4862910;28;89252;-32
2023/04/13 11:14:39;;;;;;;6.68;3.15;;;10.60;99.90;;;;;;4861335;28;90289;-31
2023/04/13 11:17:13;;;;;;;3.72;2.38;;;10.50;99.90;;;;;;4860863;28;90245;-35
2023/04/13 11:19:54;;;;;;;9.85;2.97;;;10.50;99.90;;;;;;4861191;28;90608;-31
2023/04/13 11:22:26;;;;;;;3.92;2.63;;;10.50;99.90;;;;;;4861649;28;88846;-31
2023/04/13 11:24:52;;;;;;;5.95;2.70;;;10.50;99.90;;;;;;4849374;28;89737;-31
2023/04/13 11:27:19;;;;;;;9.50;2.97;;;10.40;99.90;;;;;;4861563;28;89304;-31
2023/04/13 11:29:45;;;;;;;7.95;2.88;;;10.40;99.90;;;;;;4860594;28;88866;-32
2023/04/13 11:32:17;;;;;;;6.28;2.90;;;10.40;99.90;;;;;;4860565;28;89257;-32
2023/04/13 11:34:43;;;;;;;2.30;1.90;;;10.60;99.90;;;;;;4860616;28;89609;-29
2023/04/13 11:37:10;;;;;;;3.28;1.63;;;10.60;99.90;;;;;;4861414;28;89657;-31
2023/04/13 11:39:37;;;;;;;11.55;2.30;;;10.70;99.90;;;;;;4861370;28;89725;-31
2023/04/13 11:42:05;;;;;;;2.97;1.80;;;10.70;99.90;;;;;;4860262;28;89498;-31
2023/04/13 11:44:33;;;;;;;11.90;2.40;;;10.80;99.90;;;;;;4860707;28;89784;-30
2023/04/13 11:47:00;;;;;;;4.30;2.53;;;10.80;99.90;;;;;;4860593;28;90760;-33
2023/04/13 11:49:26;;;;;;;7.22;2.38;;;10.70;99.90;;;;;;4861423;28;89357;-32
2023/04/13 11:51:52;;;;;;;8.00;2.92;;;10.70;99.90;;;;;;4860553;28;90087;-32
2023/04/13 11:54:18;;;;;;;4.90;2.75;;;10.70;99.90;;;;;;4860414;28;90176;-35
2023/04/13 11:56:44;;;;;;;5.25;2.88;;;10.70;99.90;;;;;;4860637;28;89434;-34
2023/04/13 11:59:11;;;;;;;4.93;2.40;;;10.80;99.90;;;;;;4861011;28;88836;-33
2023/04/13 12:01:37;;;;;;;13.57;2.90;;;10.90;99.90;;;;;;4861141;28;89571;-33
2023/04/13 12:04:03;;;;;;;5.20;2.00;;;11.00;99.90;;;;;;4861031;28;90435;-33
2023/04/13 12:06:33;;;;;;;3.58;2.53;;;10.90;99.90;;;;;;4922802;23;91216;-31
2023/04/13 12:09:00;;;;;;;7.40;3.85;;;10.90;99.90;;;;;;4879584;28;91206;-31
2023/04/13 12:11:38;;;;;;;7.50;3.50;;;10.70;99.90;;;;;;4879038;28;88308;-31
2023/04/13 12:14:03;;;;;;;5.82;3.10;;;10.70;99.90;;;;;;4879934;28;90082;-34
2023/04/13 12:16:32;;;;;;;8.10;3.03;;;10.90;99.90;;;;;;4878765;28;89966;-33
2023/04/13 12:19:05;;;;;;;8.02;3.63;;;10.90;99.90;;;;;;4878756;28;90142;-32
2023/04/13 12:21:31;;;;;;;11.10;2.85;;;11.00;99.90;;;;;;4880101;28;89037;-31
2023/04/13 12:23:58;;;;;;;8.68;2.35;;;11.00;99.90;;;;;;4878575;28;90371;-32
2023/04/13 12:26:36;;;;;;;4.85;2.40;;;10.90;99.90;;;;;;4878924;28;90234;-31
2023/04/13 12:29:05;;;;;;;8.75;2.45;;;10.80;99.90;;;;;;4879885;28;89982;-32
2023/04/13 12:31:35;;;;;;;4.55;3.05;;;10.70;99.90;;;;;;4879526;28;88670;-33
2023/04/13 12:34:02;;;;;;;6.50;2.55;;;10.70;99.90;;;;;;4879198;28;90364;-33
2023/04/13 12:36:30;;;;;;;6.85;2.25;;;10.80;99.90;;;;;;4879019;28;89780;-33
2023/04/13 12:38:57;;;;;;;7.55;3.35;;;10.80;99.90;;;;;;4878900;28;89036;-32
2023/04/13 12:41:23;;;;;;;6.60;2.95;;;10.90;99.90;;;;;;4879312;28;89905;-35
2023/04/13 12:43:49;;;;;;;7.75;2.70;;;10.90;99.90;;;;;;4878876;28;90058;-31
2023/04/13 12:46:15;;;;;;;8.00;2.38;;;11.00;99.90;;;;;;4878516;28;89916;-31
2023/04/13 12:48:40;;;;;;;9.13;3.40;;;10.80;99.90;;;;;;4879579;28;89435;-33
2023/04/13 12:51:06;;;;;;;4.80;2.83;;;10.80;99.90;;;;;;4879594;28;88960;-34
2023/04/13 12:53:33;;;;;;;11.10;3.08;;;10.80;99.90;;;;;;4879401;28;91354;-32
2023/04/13 12:55:59;;;;;;;9.82;3.45;;;10.80;99.90;;;;;;4878197;28;90608;-33
2023/04/13 12:58:24;;;;;;;4.68;2.08;;;11.00;99.90;;;;;;4878735;28;89413;-33